Time;durP1;ratioP1;P1;durP2;ratioP2;P2;SDS_P1;SDS_P2;PMS_P1;PMS_P2;Temp;Humidity;BMP_temperature;BMP_pressure;BME280_temperature;BME280_humidity;BME280_pressure;Samples;Min_cycle;Max_cycle;Signal;HPM_P1;HPM_P2
2021/09/18 00:02:24;;;;;;;23.58;17.00;;;;;;;;;;5015802;28;20044;-63
2021/09/18 00:04:49;;;;;;;24.88;16.25;;;;;;;;;;5015892;28;20037;-63
2021/09/18 00:07:14;;;;;;;22.10;15.48;;;;;;;;;;5015208;28;20054;-63
2021/09/18 00:09:39;;;;;;;21.58;15.77;;;;;;;;;;5015571;28;20488;-63
2021/09/18 00:12:05;;;;;;;23.23;16.25;;;;;;;;;;5015438;28;20034;-64
2021/09/18 00:14:30;;;;;;;24.10;16.25;;;;;;;;;;5015857;28;20487;-63
2021/09/18 00:16:55;;;;;;;28.98;16.30;;;;;;;;;;5015231;28;20033;-63
2021/09/18 00:19:20;;;;;;;26.52;16.27;;;;;;;;;;5015531;28;20080;-63
2021/09/18 00:21:46;;;;;;;29.63;15.73;;;;;;;;;;5013917;28;20445;-63
2021/09/18 00:24:11;;;;;;;19.98;13.48;;;;;;;;;;5015322;28;20064;-63
2021/09/18 00:26:37;;;;;;;15.38;11.00;;;;;;;;;;5015160;28;20076;-63
2021/09/18 00:29:02;;;;;;;18.13;11.75;;;;;;;;;;5015513;28;20445;-63
2021/09/18 00:31:27;;;;;;;14.80;11.25;;;;;;;;;;5015265;28;20040;-63
2021/09/18 00:33:52;;;;;;;16.95;11.15;;;;;;;;;;5014111;28;20176;-63
2021/09/18 00:36:18;;;;;;;18.63;12.02;;;;;;;;;;5015141;28;20484;-63
2021/09/18 00:38:43;;;;;;;21.05;12.25;;;;;;;;;;5015395;28;20504;-63
2021/09/18 00:41:08;;;;;;;17.92;12.07;;;;;;;;;;5015096;28;20100;-63
2021/09/18 00:43:34;;;;;;;17.50;12.35;;;;;;;;;;5015323;28;20435;-63
2021/09/18 00:45:59;;;;;;;18.98;13.63;;;;;;;;;;5014908;28;20547;-63
2021/09/18 00:48:24;;;;;;;26.25;15.93;;;;;;;;;;5015101;28;20022;-63
2021/09/18 00:50:49;;;;;;;26.25;16.73;;;;;;;;;;5014784;28;20029;-63
2021/09/18 00:53:15;;;;;;;24.48;15.60;;;;;;;;;;5013832;28;20105;-63
2021/09/18 00:55:41;;;;;;;19.52;14.32;;;;;;;;;;5014729;28;20037;-63
2021/09/18 00:58:06;;;;;;;22.02;13.90;;;;;;;;;;5015095;28;20025;-63
2021/09/18 01:00:32;;;;;;;26.05;15.82;;;;;;;;;;5014699;28;20026;-63
2021/09/18 01:02:58;;;;;;;25.15;14.23;;;;;;;;;;5014993;28;20137;-63
2021/09/18 01:05:23;;;;;;;25.70;14.90;;;;;;;;;;5014457;28;20113;-63
2021/09/18 01:07:48;;;;;;;20.98;14.80;;;;;;;;;;5013583;28;20109;-63
2021/09/18 01:10:13;;;;;;;21.25;15.02;;;;;;;;;;5012933;28;20046;-63
2021/09/18 01:12:57;;;;;;;22.50;13.65;;;;;;;;;;5014713;28;20495;-63
2021/09/18 01:15:23;;;;;;;23.17;14.75;;;;;;;;;;5014473;28;20037;-63
2021/09/18 01:17:48;;;;;;;21.95;14.70;;;;;;;;;;5014592;28;20018;-64
2021/09/18 01:20:13;;;;;;;29.88;14.90;;;;;;;;;;5014102;28;20033;-63
2021/09/18 01:22:38;;;;;;;19.20;12.95;;;;;;;;;;5014307;28;20018;-63
2021/09/18 01:25:04;;;;;;;22.88;13.70;;;;;;;;;;5013939;28;20034;-63
2021/09/18 01:27:29;;;;;;;19.90;13.25;;;;;;;;;;5014289;28;20010;-63
2021/09/18 01:29:54;;;;;;;18.50;13.80;;;;;;;;;;5014514;28;20134;-63
2021/09/18 01:32:21;;;;;;;21.70;13.27;;;;;;;;;;5013996;28;20120;-63
2021/09/18 01:34:46;;;;;;;21.27;14.05;;;;;;;;;;5013618;28;20357;-63
2021/09/18 01:37:11;;;;;;;19.17;11.40;;;;;;;;;;5012374;28;20148;-63
2021/09/18 01:39:37;;;;;;;19.45;12.98;;;;;;;;;;5014315;28;20100;-63
2021/09/18 01:42:02;;;;;;;16.80;12.57;;;;;;;;;;5013768;28;20488;-63
2021/09/18 01:44:27;;;;;;;25.58;13.88;;;;;;;;;;5014186;28;20037;-63
2021/09/18 01:46:52;;;;;;;19.35;13.77;;;;;;;;;;5013920;28;20036;-63
2021/09/18 01:49:18;;;;;;;25.70;16.15;;;;;;;;;;5014018;28;20068;-63
2021/09/18 01:51:53;;;;;;;23.98;15.02;;;;;;;;;;5013551;28;20051;-63
2021/09/18 01:54:18;;;;;;;29.08;15.55;;;;;;;;;;5014231;28;20390;-63
2021/09/18 01:56:43;;;;;;;23.20;14.38;;;;;;;;;;5013585;28;20117;-63
2021/09/18 01:59:08;;;;;;;21.20;14.93;;;;;;;;;;5013770;28;20072;-63
2021/09/18 02:01:33;;;;;;;22.08;14.82;;;;;;;;;;5013324;28;20144;-63
2021/09/18 02:03:59;;;;;;;23.02;11.98;;;;;;;;;;5013588;28;20080;-63
2021/09/18 02:06:25;;;;;;;20.38;11.73;;;;;;;;;;5013334;28;20042;-63
2021/09/18 02:08:50;;;;;;;15.13;10.35;;;;;;;;;;5012957;28;20030;-63
2021/09/18 02:11:16;;;;;;;17.45;12.20;;;;;;;;;;5013305;28;20053;-63
2021/09/18 02:13:41;;;;;;;18.58;12.50;;;;;;;;;;5013622;28;20013;-63
2021/09/18 02:16:06;;;;;;;26.15;16.17;;;;;;;;;;5013152;28;20037;-63
2021/09/18 02:18:31;;;;;;;27.17;16.55;;;;;;;;;;5013522;28;20018;-63
2021/09/18 02:20:57;;;;;;;26.73;16.08;;;;;;;;;;5013116;28;20029;-63
2021/09/18 02:23:22;;;;;;;27.20;16.67;;;;;;;;;;5013277;28;20088;-63
2021/09/18 02:25:48;;;;;;;25.38;16.10;;;;;;;;;;5013156;28;20543;-64
2021/09/18 02:28:14;;;;;;;24.60;14.77;;;;;;;;;;5013535;28;20076;-63
2021/09/18 02:30:39;;;;;;;25.30;16.25;;;;;;;;;;5011573;28;20026;-63
2021/09/18 02:33:05;;;;;;;25.05;14.75;;;;;;;;;;5013326;28;20391;-63
2021/09/18 02:35:30;;;;;;;23.75;14.00;;;;;;;;;;5012750;28;20075;-63
2021/09/18 02:37:55;;;;;;;22.25;15.00;;;;;;;;;;5013404;28;20464;-63
2021/09/18 02:40:21;;;;;;;29.55;16.02;;;;;;;;;;5012731;28;20041;-63
2021/09/18 02:42:47;;;;;;;18.90;12.77;;;;;;;;;;5013242;28;20033;-63
2021/09/18 02:45:12;;;;;;;20.73;13.05;;;;;;;;;;5012730;28;20476;-63
2021/09/18 02:47:38;;;;;;;24.88;15.38;;;;;;;;;;5013248;28;20029;-63
2021/09/18 02:50:03;;;;;;;23.75;14.77;;;;;;;;;;5012560;28;20030;-63
2021/09/18 02:52:28;;;;;;;19.27;13.95;;;;;;;;;;5013039;28;20018;-63
2021/09/18 02:54:53;;;;;;;21.63;13.68;;;;;;;;;;5013024;28;20021;-63
2021/09/18 02:57:19;;;;;;;21.95;13.05;;;;;;;;;;5012527;28;20037;-63
2021/09/18 02:59:44;;;;;;;23.23;12.45;;;;;;;;;;5012890;28;20040;-63
2021/09/18 03:02:09;;;;;;;17.00;10.88;;;;;;;;;;5012553;28;20037;-63
2021/09/18 03:04:34;;;;;;;16.50;11.88;;;;;;;;;;5012774;28;20029;-63
2021/09/18 03:07:00;;;;;;;19.50;11.93;;;;;;;;;;5012629;28;20041;-63
2021/09/18 03:09:25;;;;;;;16.80;12.10;;;;;;;;;;5011601;28;20500;-63
2021/09/18 03:11:50;;;;;;;22.98;12.05;;;;;;;;;;5012543;28;20121;-63
2021/09/18 03:14:15;;;;;;;17.85;12.05;;;;;;;;;;5012968;28;20113;-63
2021/09/18 03:16:41;;;;;;;21.52;13.18;;;;;;;;;;5012453;28;20030;-63
2021/09/18 03:19:06;;;;;;;19.17;12.70;;;;;;;;;;5012738;28;20415;-63
2021/09/18 03:21:31;;;;;;;20.95;13.82;;;;;;;;;;5012419;28;20034;-63
2021/09/18 03:23:56;;;;;;;20.45;13.43;;;;;;;;;;5012531;28;20036;-63
2021/09/18 03:26:22;;;;;;;17.02;11.57;;;;;;;;;;5012498;28;20040;-63
2021/09/18 03:28:47;;;;;;;16.92;11.10;;;;;;;;;;5012727;28;20018;-63
2021/09/18 03:31:12;;;;;;;18.80;11.65;;;;;;;;;;5012126;28;20461;-63
2021/09/18 03:33:39;;;;;;;18.20;11.73;;;;;;;;;;5012611;28;20022;-63
2021/09/18 03:36:04;;;;;;;17.88;12.18;;;;;;;;;;5012423;28;20057;-63
2021/09/18 03:38:29;;;;;;;22.13;12.18;;;;;;;;;;5012564;28;20072;-63
2021/09/18 03:40:54;;;;;;;19.17;11.75;;;;;;;;;;5012119;28;20040;-63
2021/09/18 03:43:20;;;;;;;18.35;12.25;;;;;;;;;;5012417;28;20033;-63
2021/09/18 03:45:45;;;;;;;16.30;10.52;;;;;;;;;;5012209;28;20040;-63
2021/09/18 03:48:10;;;;;;;12.98;9.30;;;;;;;;;;5012517;28;20056;-63
2021/09/18 03:50:35;;;;;;;13.82;9.18;;;;;;;;;;5012036;28;20083;-63
2021/09/18 03:53:00;;;;;;;17.17;11.35;;;;;;;;;;5012489;28;20022;-63
2021/09/18 03:55:26;;;;;;;17.00;10.57;;;;;;;;;;5012159;28;20033;-63
2021/09/18 03:57:51;;;;;;;17.05;12.05;;;;;;;;;;5013821;28;20036;-63
2021/09/18 04:00:16;;;;;;;24.33;12.23;;;;;;;;;;5015538;28;20017;-63
2021/09/18 04:02:41;;;;;;;19.05;12.35;;;;;;;;;;5015845;28;20014;-63
2021/09/18 04:05:07;;;;;;;20.38;13.02;;;;;;;;;;5015464;28;20034;-63
2021/09/18 04:07:32;;;;;;;20.58;12.15;;;;;;;;;;5016055;28;20025;-63
2021/09/18 04:09:57;;;;;;;15.95;10.48;;;;;;;;;;5015246;28;20044;-63
2021/09/18 04:12:22;;;;;;;14.63;10.18;;;;;;;;;;5015394;28;20034;-63
2021/09/18 04:14:48;;;;;;;16.90;11.23;;;;;;;;;;5015931;28;20014;-63
2021/09/18 04:17:14;;;;;;;16.52;10.52;;;;;;;;;;5015314;28;20127;-63
2021/09/18 04:19:39;;;;;;;16.30;11.10;;;;;;;;;;5016135;28;20448;-63
2021/09/18 04:22:05;;;;;;;16.10;11.40;;;;;;;;;;5015161;28;20030;-63
2021/09/18 04:24:30;;;;;;;15.68;10.35;;;;;;;;;;5015680;28;20041;-63
2021/09/18 04:26:55;;;;;;;15.18;11.07;;;;;;;;;;5015179;28;20400;-63
2021/09/18 04:29:20;;;;;;;14.60;9.63;;;;;;;;;;5015548;28;20022;-63
2021/09/18 04:31:46;;;;;;;10.73;8.00;;;;;;;;;;5015221;28;20057;-63
2021/09/18 04:34:11;;;;;;;13.40;8.52;;;;;;;;;;5015497;28;20018;-64
2021/09/18 04:36:36;;;;;;;12.68;8.27;;;;;;;;;;5015210;28;20096;-63
2021/09/18 04:39:01;;;;;;;14.50;8.73;;;;;;;;;;5015461;28;20121;-63
2021/09/18 04:41:27;;;;;;;14.20;9.45;;;;;;;;;;5014646;28;20113;-63
2021/09/18 04:43:52;;;;;;;13.15;9.32;;;;;;;;;;5014060;28;20061;-63
2021/09/18 04:46:17;;;;;;;16.67;9.13;;;;;;;;;;5014957;28;20092;-63
2021/09/18 04:48:43;;;;;;;11.80;8.95;;;;;;;;;;5014971;28;20052;-63
2021/09/18 04:51:08;;;;;;;14.85;10.13;;;;;;;;;;5014769;28;20137;-63
2021/09/18 04:53:33;;;;;;;13.57;8.85;;;;;;;;;;5013715;28;20022;-63
2021/09/18 04:55:58;;;;;;;13.32;9.50;;;;;;;;;;5014743;28;20060;-63
2021/09/18 04:58:24;;;;;;;13.30;9.27;;;;;;;;;;5015146;28;20515;-63
2021/09/18 05:00:49;;;;;;;13.63;8.80;;;;;;;;;;5014769;28;20026;-63
2021/09/18 05:03:14;;;;;;;11.45;8.13;;;;;;;;;;5014841;28;20483;-63
2021/09/18 05:05:39;;;;;;;12.95;8.60;;;;;;;;;;5014674;28;20038;-63
2021/09/18 05:08:05;;;;;;;11.80;8.70;;;;;;;;;;5014633;28;20176;-63
2021/09/18 05:10:30;;;;;;;14.25;9.20;;;;;;;;;;5013307;28;20038;-63
2021/09/18 05:12:55;;;;;;;15.82;9.65;;;;;;;;;;5014560;28;20060;-63
2021/09/18 05:15:20;;;;;;;11.75;8.50;;;;;;;;;;5014338;28;20033;-63
2021/09/18 05:17:45;;;;;;;12.40;9.43;;;;;;;;;;5014548;28;20453;-63
2021/09/18 05:20:11;;;;;;;13.68;8.82;;;;;;;;;;5013995;28;20034;-63
2021/09/18 05:22:36;;;;;;;12.30;7.95;;;;;;;;;;5014428;28;20030;-63
2021/09/18 05:25:02;;;;;;;12.75;8.07;;;;;;;;;;5013984;28;20033;-63
2021/09/18 05:27:27;;;;;;;13.52;9.65;;;;;;;;;;5014422;28;20010;-63
2021/09/18 05:29:52;;;;;;;16.63;11.65;;;;;;;;;;5013168;28;20510;-63
2021/09/18 05:32:17;;;;;;;13.32;9.23;;;;;;;;;;5013821;28;20037;-63
2021/09/18 05:34:43;;;;;;;14.65;8.80;;;;;;;;;;5014617;28;20123;-63
2021/09/18 05:37:08;;;;;;;14.93;10.30;;;;;;;;;;5014017;28;20476;-63
2021/09/18 05:39:33;;;;;;;20.20;12.05;;;;;;;;;;5014397;28;20476;-63
2021/09/18 05:41:58;;;;;;;21.75;13.35;;;;;;;;;;5013870;28;20038;-63
2021/09/18 05:44:23;;;;;;;17.67;12.82;;;;;;;;;;5014164;28;20044;-63
2021/09/18 05:46:49;;;;;;;23.05;12.65;;;;;;;;;;5013750;28;20029;-64
2021/09/18 05:49:14;;;;;;;14.52;8.13;;;;;;;;;;5014002;28;20048;-63
2021/09/18 05:51:39;;;;;;;8.90;6.13;;;;;;;;;;5013422;28;20465;-63
2021/09/18 05:54:04;;;;;;;11.40;7.97;;;;;;;;;;5014207;28;20417;-65
2021/09/18 05:56:29;;;;;;;11.88;8.57;;;;;;;;;;5013672;28;20084;-63
2021/09/18 05:58:55;;;;;;;21.92;12.48;;;;;;;;;;5014131;28;20032;-63
2021/09/18 06:01:20;;;;;;;28.33;12.07;;;;;;;;;;5013191;28;20025;-63
2021/09/18 06:03:45;;;;;;;19.08;13.07;;;;;;;;;;5013873;28;20022;-64
2021/09/18 06:06:10;;;;;;;28.95;12.38;;;;;;;;;;5013233;28;20542;-64
2021/09/18 06:08:36;;;;;;;17.30;11.85;;;;;;;;;;5013891;28;20125;-64
2021/09/18 06:11:01;;;;;;;13.77;10.23;;;;;;;;;;5013078;28;20500;-63
2021/09/18 06:13:26;;;;;;;14.57;9.20;;;;;;;;;;5013850;28;20109;-64
2021/09/18 06:15:51;;;;;;;13.13;9.40;;;;;;;;;;5013504;28;20435;-64
2021/09/18 06:18:17;;;;;;;12.40;9.10;;;;;;;;;;5013479;28;20465;-63
2021/09/18 06:20:42;;;;;;;10.93;7.80;;;;;;;;;;5013120;28;20026;-63
2021/09/18 06:23:07;;;;;;;17.75;7.65;;;;;;;;;;5013578;28;20026;-63
2021/09/18 06:25:32;;;;;;;12.10;6.88;;;;;;;;;;5013160;28;20038;-64
2021/09/18 06:27:58;;;;;;;11.73;7.30;;;;;;;;;;5013550;28;20010;-64
2021/09/18 06:30:23;;;;;;;14.77;7.40;;;;;;;;;;5013081;28;20061;-63
2021/09/18 06:32:48;;;;;;;21.58;7.40;;;;;;;;;;5013329;28;20460;-64
2021/09/18 06:35:13;;;;;;;24.80;7.93;;;;;;;;;;5012998;28;20021;-64
2021/09/18 06:37:44;;;;;;;13.65;7.95;;;;;;;;;;5013385;28;20022;-64
2021/09/18 06:40:11;;;;;;;13.38;8.18;;;;;;;;;;5012889;28;20021;-64
2021/09/18 06:42:36;;;;;;;27.67;8.38;;;;;;;;;;5013307;28;20100;-63
2021/09/18 06:45:01;;;;;;;22.60;8.32;;;;;;;;;;5012772;28;20452;-63
2021/09/18 06:47:26;;;;;;;24.38;9.95;;;;;;;;;;5011889;28;20026;-63
2021/09/18 06:49:51;;;;;;;29.65;10.23;;;;;;;;;;5013007;28;20063;-64
2021/09/18 06:52:17;;;;;;;22.90;11.90;;;;;;;;;;5012478;28;20037;-63
2021/09/18 06:54:43;;;;;;;17.92;10.50;;;;;;;;;;5013160;28;20037;-64
2021/09/18 06:57:11;;;;;;;16.17;10.10;;;;;;;;;;5012715;28;20124;-64
2021/09/18 06:59:37;;;;;;;15.05;10.02;;;;;;;;;;5013018;28;20026;-64
2021/09/18 07:02:02;;;;;;;20.33;10.20;;;;;;;;;;5012584;28;20030;-64
2021/09/18 07:04:27;;;;;;;16.50;10.50;;;;;;;;;;5013001;28;20128;-63
2021/09/18 07:06:52;;;;;;;20.02;11.10;;;;;;;;;;5012602;28;20026;-64
2021/09/18 07:09:18;;;;;;;18.10;10.40;;;;;;;;;;5012561;28;20053;-64
2021/09/18 07:11:43;;;;;;;18.02;10.35;;;;;;;;;;5011789;28;20145;-64
2021/09/18 07:14:08;;;;;;;27.23;10.98;;;;;;;;;;5012603;28;20108;-63
2021/09/18 07:16:33;;;;;;;24.63;10.20;;;;;;;;;;5012368;28;20092;-64
2021/09/18 07:18:59;;;;;;;30.48;10.10;;;;;;;;;;5012838;28;20152;-64
2021/09/18 07:21:24;;;;;;;20.20;9.68;;;;;;;;;;5012500;28;20145;-64
2021/09/18 07:23:49;;;;;;;17.02;9.10;;;;;;;;;;5012755;28;20500;-64
2021/09/18 07:26:14;;;;;;;12.98;9.35;;;;;;;;;;5012590;28;20026;-64
2021/09/18 07:28:39;;;;;;;15.80;8.63;;;;;;;;;;5011495;28;20029;-64
2021/09/18 07:31:05;;;;;;;20.35;9.50;;;;;;;;;;5012334;28;20096;-64
2021/09/18 07:33:30;;;;;;;15.73;9.43;;;;;;;;;;5015177;28;20488;-64
2021/09/18 07:35:55;;;;;;;19.20;9.55;;;;;;;;;;5016038;28;20041;-64
2021/09/18 07:38:20;;;;;;;14.48;9.75;;;;;;;;;;5016493;28;20029;-64
2021/09/18 07:40:46;;;;;;;15.15;9.60;;;;;;;;;;5016332;28;20033;-64
2021/09/18 07:43:11;;;;;;;10.57;8.82;;;;;;;;;;5015064;28;20057;-63
2021/09/18 07:45:36;;;;;;;17.48;8.80;;;;;;;;;;5016015;28;20161;-64
2021/09/18 07:48:01;;;;;;;11.15;8.32;;;;;;;;;;5016333;28;20037;-64
2021/09/18 07:50:26;;;;;;;9.48;7.13;;;;;;;;;;5015821;28;20038;-64
2021/09/18 07:52:52;;;;;;;8.88;6.63;;;;;;;;;;5016214;28;20021;-64
2021/09/18 07:55:17;;;;;;;10.43;6.70;;;;;;;;;;5015763;28;20022;-64
2021/09/18 07:57:42;;;;;;;9.05;7.03;;;;;;;;;;5016337;28;20159;-64
2021/09/18 08:00:08;;;;;;;6.93;5.95;;;;;;;;;;5015565;28;20167;-64
2021/09/18 08:02:33;;;;;;;8.13;6.78;;;;;;;;;;5015568;28;20067;-65
2021/09/18 08:04:58;;;;;;;8.95;6.90;;;;;;;;;;5015866;28;20479;-64
2021/09/18 08:07:23;;;;;;;9.68;6.85;;;;;;;;;;5014342;28;20080;-64
2021/09/18 08:09:49;;;;;;;8.02;6.47;;;;;;;;;;5015915;28;20104;-64
2021/09/18 08:12:14;;;;;;;8.20;6.93;;;;;;;;;;5015386;28;20030;-64
2021/09/18 08:14:40;;;;;;;7.82;6.60;;;;;;;;;;5015795;28;20472;-64
2021/09/18 08:17:05;;;;;;;8.40;6.50;;;;;;;;;;5015313;28;20056;-64
2021/09/18 08:19:30;;;;;;;7.63;6.32;;;;;;;;;;5015875;28;20465;-64
2021/09/18 08:21:55;;;;;;;10.48;6.78;;;;;;;;;;5015043;28;20396;-64
2021/09/18 08:24:20;;;;;;;8.23;6.50;;;;;;;;;;5015601;28;20384;-64
2021/09/18 08:26:46;;;;;;;9.00;6.65;;;;;;;;;;5015168;28;20400;-64
2021/09/18 08:29:11;;;;;;;8.32;6.70;;;;;;;;;;5015548;28;20021;-64
2021/09/18 08:31:36;;;;;;;9.30;6.90;;;;;;;;;;5014903;28;20080;-64
2021/09/18 08:34:01;;;;;;;8.95;6.53;;;;;;;;;;5015587;28;20435;-64
2021/09/18 08:36:26;;;;;;;8.27;6.68;;;;;;;;;;5015013;28;20540;-64
2021/09/18 08:38:52;;;;;;;9.65;6.50;;;;;;;;;;5015137;28;20511;-64
2021/09/18 08:41:17;;;;;;;8.98;6.50;;;;;;;;;;5014956;28;20041;-64
2021/09/18 08:43:42;;;;;;;9.13;6.75;;;;;;;;;;5015136;28;20026;-64
2021/09/18 08:46:07;;;;;;;8.05;6.63;;;;;;;;;;5014689;28;20030;-64
2021/09/18 08:48:33;;;;;;;9.73;7.18;;;;;;;;;;5014003;28;20018;-65
2021/09/18 08:50:58;;;;;;;7.97;7.00;;;;;;;;;;5014875;28;20026;-64
2021/09/18 08:53:23;;;;;;;11.18;8.98;;;;;;;;;;5015256;28;20543;-64
2021/09/18 08:55:54;;;;;;;13.18;8.77;;;;;;;;;;5014521;28;20076;-64
2021/09/18 08:58:23;;;;;;;14.57;9.27;;;;;;;;;;5014925;28;20055;-64
2021/09/18 09:00:52;;;;;;;12.32;9.80;;;;;;;;;;5014378;28;20499;-64
2021/09/18 09:03:25;;;;;;;11.68;8.88;;;;;;;;;;5014983;28;20026;-64
2021/09/18 09:05:56;;;;;;;11.80;9.50;;;;;;;;;;5013186;28;20488;-64
2021/09/18 09:08:21;;;;;;;12.73;9.10;;;;;;;;;;5013475;28;20049;-64
2021/09/18 09:10:47;;;;;;;13.20;9.85;;;;;;;;;;5014225;28;20100;-63
2021/09/18 09:13:16;;;;;;;15.60;9.75;;;;;;;;;;5014644;28;20017;-64
2021/09/18 09:15:43;;;;;;;11.30;9.70;;;;;;;;;;5014501;28;20061;-64
2021/09/18 09:18:15;;;;;;;19.58;10.32;;;;;;;;;;5014755;28;20095;-64
2021/09/18 09:20:41;;;;;;;13.65;9.80;;;;;;;;;;5014446;28;20030;-64
2021/09/18 09:23:13;;;;;;;10.75;9.32;;;;;;;;;;5014611;28;20084;-64
2021/09/18 09:25:38;;;;;;;14.63;9.63;;;;;;;;;;5014118;28;20030;-64
2021/09/18 09:28:22;;;;;;;11.48;9.50;;;;;;;;;;5014379;28;20072;-64
2021/09/18 09:30:47;;;;;;;13.43;9.65;;;;;;;;;;5014155;28;20034;-64
2021/09/18 09:33:13;;;;;;;12.30;9.73;;;;;;;;;;5013097;28;20020;-64
2021/09/18 09:35:38;;;;;;;15.98;9.57;;;;;;;;;;5013956;28;20065;-64
2021/09/18 09:38:03;;;;;;;17.08;9.60;;;;;;;;;;5013554;28;20533;-64
2021/09/18 09:40:39;;;;;;;12.63;9.65;;;;;;;;;;5017649;28;20033;-64
2021/09/18 09:43:05;;;;;;;13.23;10.40;;;;;;;;;;5033935;28;20049;-64
2021/09/18 09:45:30;;;;;;;13.98;10.10;;;;;;;;;;5029566;28;20481;-64
2021/09/18 09:48:04;;;;;;;13.02;10.57;;;;;;;;;;5014099;28;20022;-64
2021/09/18 09:50:30;;;;;;;17.20;10.48;;;;;;;;;;5013791;28;20036;-64
2021/09/18 09:52:56;;;;;;;18.65;11.50;;;;;;;;;;5013908;28;20014;-64
2021/09/18 09:55:22;;;;;;;17.00;10.18;;;;;;;;;;5012824;28;20029;-64
2021/09/18 09:57:57;;;;;;;11.35;9.43;;;;;;;;;;5014075;28;20433;-64
2021/09/18 10:00:22;;;;;;;14.20;10.60;;;;;;;;;;5012142;28;20372;-64
2021/09/18 10:02:47;;;;;;;15.65;11.38;;;;;;;;;;5013836;28;20022;-64
2021/09/18 10:05:13;;;;;;;14.85;10.60;;;;;;;;;;5012181;28;20034;-64
2021/09/18 10:07:38;;;;;;;18.77;11.07;;;;;;;;;;5013944;28;20022;-64
2021/09/18 10:10:04;;;;;;;13.75;11.60;;;;;;;;;;5013170;28;20065;-64
2021/09/18 10:12:29;;;;;;;17.13;11.38;;;;;;;;;;5013741;28;20014;-64
2021/09/18 10:14:55;;;;;;;17.33;12.02;;;;;;;;;;5013691;28;20033;-64
2021/09/18 10:17:20;;;;;;;17.30;11.10;;;;;;;;;;5013313;28;20070;-64
2021/09/18 10:25:03;;;;;;;16.48;13.10;;;;;;;;;;5013085;28;20037;-64
2021/09/18 10:27:28;;;;;;;13.88;11.70;;;;;;;;;;5013589;28;20021;-64
2021/09/18 10:29:53;;;;;;;15.13;11.57;;;;;;;;;;5013390;28;20447;-64
2021/09/18 10:32:19;;;;;;;18.00;11.98;;;;;;;;;;5012931;28;20029;-64
2021/09/18 10:34:44;;;;;;;18.73;12.45;;;;;;;;;;5013355;28;20025;-64
2021/09/18 10:37:29;;;;;;;14.90;13.02;;;;;;;;;;5012849;28;20030;-64
2021/09/18 10:40:21;;;;;;;19.05;12.57;;;;;;;;;;5012780;28;20037;-65
2021/09/18 10:42:47;;;;;;;18.45;13.57;;;;;;;;;;5008152;28;20446;-64
2021/09/18 10:45:12;;;;;;;23.08;14.77;;;;;;;;;;5012592;28;20088;-64
2021/09/18 10:47:38;;;;;;;17.85;13.95;;;;;;;;;;5013174;28;20022;-64
2021/09/18 10:50:04;;;;;;;15.80;12.98;;;;;;;;;;5013012;28;20022;-64
2021/09/18 10:52:29;;;;;;;19.52;14.00;;;;;;;;;;5013385;28;20024;-64
2021/09/18 10:55:13;;;;;;;19.30;14.65;;;;;;;;;;5013240;28;20022;-64
2021/09/18 10:57:38;;;;;;;22.55;16.08;;;;;;;;;;5032432;28;20037;-64
2021/09/18 11:00:18;;;;;;;24.45;17.40;;;;;;;;;;5032624;28;20354;-64
2021/09/18 11:02:45;;;;;;;24.48;18.08;;;;;;;;;;5033326;28;20017;-64
2021/09/18 11:05:30;;;;;;;22.83;16.23;;;;;;;;;;5029626;28;20030;-64
2021/09/18 11:07:58;;;;;;;22.85;15.98;;;;;;;;;;5014530;28;20021;-64
2021/09/18 11:10:23;;;;;;;26.42;19.33;;;;;;;;;;5015348;28;20445;-64
2021/09/18 11:13:09;;;;;;;24.90;19.23;;;;;;;;;;5017094;28;20125;-64
2021/09/18 11:15:47;;;;;;;25.38;17.52;;;;;;;;;;5005920;28;20069;-64
2021/09/18 11:18:36;;;;;;;26.35;19.55;;;;;;;;;;5016759;28;20022;-64
2021/09/18 11:21:10;;;;;;;23.80;16.27;;;;;;;;;;5005456;28;20038;-64
2021/09/18 11:23:54;;;;;;;25.27;17.40;;;;;;;;;;5017063;28;20025;-64
2021/09/18 11:26:31;;;;;;;27.65;18.27;;;;;;;;;;5016408;28;20084;-64
2021/09/18 11:28:56;;;;;;;30.10;22.05;;;;;;;;;;5016806;28;20022;-64
2021/09/18 11:31:22;;;;;;;27.42;19.95;;;;;;;;;;5015542;28;20080;-64
2021/09/18 11:33:50;;;;;;;33.03;22.25;;;;;;;;;;5016884;28;20072;-64
2021/09/18 11:36:17;;;;;;;30.25;21.52;;;;;;;;;;5016499;28;20038;-63
2021/09/18 11:38:42;;;;;;;37.40;26.30;;;;;;;;;;5016667;28;20045;-64
2021/09/18 11:41:08;;;;;;;36.00;24.50;;;;;;;;;;5015615;28;20413;-64
2021/09/18 11:43:34;;;;;;;35.35;24.00;;;;;;;;;;5016571;28;20025;-64
2021/09/18 11:46:00;;;;;;;28.30;21.15;;;;;;;;;;5016024;28;20041;-64
2021/09/18 11:48:25;;;;;;;29.77;20.15;;;;;;;;;;5015124;28;20037;-64
2021/09/18 11:50:51;;;;;;;27.60;21.50;;;;;;;;;;5016134;28;20026;-64
2021/09/18 11:53:16;;;;;;;31.75;20.60;;;;;;;;;;5016383;28;20026;-65
2021/09/18 11:55:42;;;;;;;27.40;19.75;;;;;;;;;;5015922;28;20406;-63
2021/09/18 11:58:17;;;;;;;40.65;21.17;;;;;;;;;;5016235;28;20022;-64
2021/09/18 12:00:52;;;;;;;29.02;21.48;;;;;;;;;;5014576;28;20480;-63
2021/09/18 12:03:25;;;;;;;32.28;22.55;;;;;;;;;;5016080;28;20384;-63
2021/09/18 12:05:51;;;;;;;26.65;19.50;;;;;;;;;;5015866;28;20038;-64
2021/09/18 12:08:18;;;;;;;25.25;16.63;;;;;;;;;;5016125;28;20041;-63
2021/09/18 12:10:44;;;;;;;27.63;19.98;;;;;;;;;;5015494;28;20552;-63
2021/09/18 12:13:09;;;;;;;25.42;18.73;;;;;;;;;;5014837;28;20114;-65
2021/09/18 12:15:40;;;;;;;27.67;19.85;;;;;;;;;;5015557;28;20042;-64
2021/09/18 12:18:07;;;;;;;28.50;19.23;;;;;;;;;;5015568;28;20053;-63
2021/09/18 12:20:33;;;;;;;25.52;18.70;;;;;;;;;;5015476;28;20036;-63
2021/09/18 12:22:58;;;;;;;20.15;14.18;;;;;;;;;;5015732;28;20018;-64
2021/09/18 12:25:24;;;;;;;19.80;14.48;;;;;;;;;;5015430;28;20113;-64
2021/09/18 12:27:53;;;;;;;19.10;13.40;;;;;;;;;;5015719;28;20033;-64
2021/09/18 12:30:24;;;;;;;15.60;10.95;;;;;;;;;;5015288;28;20026;-64
2021/09/18 12:32:59;;;;;;;19.88;13.10;;;;;;;;;;5015757;28;20025;-63
2021/09/18 12:35:24;;;;;;;17.70;13.73;;;;;;;;;;5018580;28;20033;-64
2021/09/18 12:37:50;;;;;;;17.77;12.68;;;;;;;;;;5034373;28;20461;-63
2021/09/18 12:40:19;;;;;;;20.15;13.15;;;;;;;;;;5033527;28;20018;-64
2021/09/18 12:42:44;;;;;;;18.75;14.07;;;;;;;;;;5034059;28;20018;-64
2021/09/18 12:45:24;;;;;;;17.83;12.80;;;;;;;;;;5032337;28;20021;-64
2021/09/18 12:47:49;;;;;;;14.50;11.55;;;;;;;;;;5013956;28;20022;-64
2021/09/18 12:50:15;;;;;;;8.27;6.05;;;;;;;;;;5014847;28;20376;-63
2021/09/18 12:52:41;;;;;;;11.65;8.00;;;;;;;;;;5015378;28;20041;-64
2021/09/18 12:55:06;;;;;;;10.85;7.40;;;;;;;;;;5014323;28;20464;-64
2021/09/18 12:57:32;;;;;;;9.98;7.30;;;;;;;;;;5034853;28;20021;-64
2021/09/18 13:00:04;;;;;;;12.15;7.53;;;;;;;;;;5034956;28;20023;-64
2021/09/18 13:02:30;;;;;;;10.18;6.78;;;;;;;;;;5034516;28;20080;-64
2021/09/18 13:04:57;;;;;;;11.18;8.00;;;;;;;;;;5033453;28;20037;-63
2021/09/18 13:07:22;;;;;;;11.73;8.35;;;;;;;;;;5033172;28;20025;-64
2021/09/18 13:09:54;;;;;;;12.10;8.18;;;;;;;;;;5034465;28;20057;-64
2021/09/18 13:12:19;;;;;;;13.95;9.93;;;;;;;;;;5034338;28;20056;-63
2021/09/18 13:14:45;;;;;;;13.70;9.63;;;;;;;;;;5034702;28;20392;-64
2021/09/18 13:17:22;;;;;;;10.98;8.15;;;;;;;;;;5016274;28;20034;-64
2021/09/18 13:19:51;;;;;;;12.75;8.13;;;;;;;;;;5015010;28;20079;-64
2021/09/18 13:22:17;;;;;;;8.98;6.75;;;;;;;;;;5014449;28;20088;-66
2021/09/18 13:24:42;;;;;;;11.93;8.27;;;;;;;;;;5014545;28;20038;-63
2021/09/18 13:27:08;;;;;;;13.45;9.85;;;;;;;;;;5030519;28;20030;-64
2021/09/18 13:29:33;;;;;;;15.50;10.25;;;;;;;;;;5033760;28;20095;-64
2021/09/18 13:31:58;;;;;;;11.57;8.75;;;;;;;;;;5032341;28;20029;-64
2021/09/18 13:34:23;;;;;;;13.70;9.65;;;;;;;;;;5034478;28;20472;-64
2021/09/18 13:36:49;;;;;;;14.10;10.27;;;;;;;;;;5019261;28;20440;-65
2021/09/18 13:39:14;;;;;;;14.25;9.10;;;;;;;;;;5014459;28;20044;-64
2021/09/18 13:41:39;;;;;;;11.30;7.90;;;;;;;;;;5045895;28;20113;-64
2021/09/18 13:44:04;;;;;;;12.23;8.88;;;;;;;;;;5014192;28;20034;-64
2021/09/18 13:46:30;;;;;;;13.93;9.18;;;;;;;;;;5013843;28;20060;-64
2021/09/18 13:48:55;;;;;;;9.82;8.00;;;;;;;;;;5014225;28;20065;-64
2021/09/18 13:51:20;;;;;;;13.73;8.30;;;;;;;;;;5024755;28;20030;-64
2021/09/18 13:53:45;;;;;;;13.25;7.53;;;;;;;;;;5033840;28;20036;-64
2021/09/18 13:56:11;;;;;;;14.18;8.02;;;;;;;;;;5032302;28;20025;-64
2021/09/18 13:58:36;;;;;;;11.82;7.88;;;;;;;;;;5033641;28;20033;-64
2021/09/18 14:01:02;;;;;;;9.10;7.30;;;;;;;;;;5032936;28;20040;-64
2021/09/18 14:03:27;;;;;;;11.32;6.97;;;;;;;;;;5033616;28;20079;-64
2021/09/18 14:05:52;;;;;;;9.32;5.72;;;;;;;;;;5033320;28;20037;-64
2021/09/18 14:08:18;;;;;;;11.40;6.78;;;;;;;;;;5033715;28;20096;-64
2021/09/18 14:10:43;;;;;;;10.73;6.63;;;;;;;;;;5033063;28;20168;-64
2021/09/18 14:13:09;;;;;;;10.27;6.55;;;;;;;;;;5033623;28;20175;-63
2021/09/18 14:15:34;;;;;;;8.45;6.50;;;;;;;;;;5033150;28;20057;-64
2021/09/18 14:18:01;;;;;;;9.15;6.60;;;;;;;;;;5033276;28;20017;-64
2021/09/18 14:20:26;;;;;;;8.43;5.40;;;;;;;;;;5029660;28;20030;-64
2021/09/18 14:22:51;;;;;;;10.48;5.65;;;;;;;;;;5013691;28;20383;-64
2021/09/18 14:25:16;;;;;;;8.80;5.38;;;;;;;;;;5013253;28;20468;-64